Time;durP1;ratioP1;P1;durP2;ratioP2;P2;SDS_P1;SDS_P2;PMS_P1;PMS_P2;Temp;Humidity;BMP_temperature;BMP_pressure;BME280_temperature;BME280_humidity;BME280_pressure;Samples;Min_cycle;Max_cycle;Signal;HPM_P1;HPM_P2
2024/01/05 00:00:11;;;;;;;5.97;3.10;;;;;;;4.42;67.56;100668.50;7396229;19;20115;-63
2024/01/05 00:02:39;;;;;;;6.45;3.30;;;;;;;4.43;68.10;100670.19;7396110;19;20019;-63
2024/01/05 00:05:07;;;;;;;6.97;3.20;;;;;;;4.57;67.47;100662.50;7392344;19;20011;-65
2024/01/05 00:07:35;;;;;;;7.55;3.15;;;;;;;4.60;67.39;100657.97;7395646;19;20019;-65
2024/01/05 00:10:03;;;;;;;5.47;3.15;;;;;;;4.58;67.37;100651.13;7394321;19;20015;-65
2024/01/05 00:12:31;;;;;;;5.78;3.10;;;;;;;4.49;67.69;100646.31;7394581;19;20018;-65
2024/01/05 00:14:59;;;;;;;9.15;3.47;;;;;;;4.43;68.04;100649.22;7391251;19;20021;-64
2024/01/05 00:17:28;;;;;;;5.68;3.10;;;;;;;4.55;67.93;100646.84;7394851;19;20066;-66
2024/01/05 00:19:56;;;;;;;6.60;3.20;;;;;;;4.54;67.97;100641.69;7394941;19;20022;-66
2024/01/05 00:22:24;;;;;;;6.07;3.20;;;;;;;4.59;67.61;100622.19;7395515;19;20018;-67
2024/01/05 00:24:52;;;;;;;5.75;3.30;;;;;;;4.54;67.71;100623.31;7392325;19;20121;-64
2024/01/05 00:27:20;;;;;;;7.57;3.40;;;;;;;4.53;67.77;100621.63;7393017;19;20105;-64
2024/01/05 00:29:48;;;;;;;7.10;3.22;;;;;;;4.48;67.95;100621.88;7393981;19;20022;-65
2024/01/05 00:32:16;;;;;;;6.85;3.35;;;;;;;4.60;67.69;100618.63;7394861;19;20022;-65
2024/01/05 00:34:46;;;;;;;7.15;3.28;;;;;;;4.56;67.75;100616.25;7391005;19;20571;-64
2024/01/05 00:37:14;;;;;;;6.43;3.17;;;;;;;4.57;68.03;100600.41;7393735;19;20015;-65
2024/01/05 00:39:42;;;;;;;6.22;3.15;;;;;;;4.68;67.80;100599.88;7394647;19;20465;-64
2024/01/05 00:42:10;;;;;;;6.88;3.30;;;;;;;4.60;68.10;100597.63;7394220;19;20018;-64
2024/01/05 00:44:40;;;;;;;6.63;3.42;;;;;;;4.64;68.30;100599.19;7393466;19;20038;-64
2024/01/05 00:47:08;;;;;;;7.07;3.58;;;;;;;4.58;68.20;100594.25;7395132;19;20021;-64
2024/01/05 00:49:37;;;;;;;7.75;3.85;;;;;;;4.54;68.59;100586.59;7394839;19;20087;-64
2024/01/05 00:52:05;;;;;;;7.95;3.90;;;;;;;4.50;68.32;100579.84;7395016;19;20026;-65
2024/01/05 00:54:33;;;;;;;8.32;3.60;;;;;;;4.54;68.19;100586.59;7393915;19;20042;-64
2024/01/05 00:57:01;;;;;;;8.02;3.70;;;;;;;4.40;68.49;100574.22;7392237;19;20412;-64
2024/01/05 00:59:29;;;;;;;9.18;4.10;;;;;;;4.42;68.57;100590.72;7393494;19;20025;-64
2024/01/05 01:01:57;;;;;;;8.10;3.80;;;;;;;4.55;68.31;100583.09;7393386;19;20054;-65
2024/01/05 01:04:25;;;;;;;9.63;4.30;;;;;;;4.57;68.16;100583.84;7390295;19;20015;-65
2024/01/05 01:06:53;;;;;;;9.23;4.65;;;;;;;4.50;68.39;100577.22;7393534;19;20014;-67
2024/01/05 01:09:21;;;;;;;7.97;3.88;;;;;;;4.42;68.94;100589.88;7394148;19;20081;-65
2024/01/05 01:11:50;;;;;;;10.68;4.38;;;;;;;4.40;68.85;100569.81;7391233;19;20022;-63
2024/01/05 01:14:18;;;;;;;10.40;4.55;;;;;;;4.41;69.25;100562.81;7391981;19;20015;-64
2024/01/05 01:16:46;;;;;;;11.48;4.90;;;;;;;4.25;69.31;100562.75;7394098;19;20518;-65
2024/01/05 01:19:14;;;;;;;9.63;4.75;;;;;;;4.23;69.63;100564.59;7393714;19;20050;-64
2024/01/05 01:21:42;;;;;;;9.75;4.32;;;;;;;4.35;69.40;100555.25;7392526;19;20031;-65
2024/01/05 01:24:10;;;;;;;10.15;4.30;;;;;;;4.42;69.46;100561.03;7392246;19;20018;-65
2024/01/05 01:26:38;;;;;;;9.88;4.63;;;;;;;4.51;69.15;100564.03;7393502;19;20011;-65
2024/01/05 01:29:08;;;;;;;10.02;5.03;;;;;;;4.56;69.18;100562.00;7393582;19;20025;-64
2024/01/05 01:31:36;;;;;;;10.38;5.22;;;;;;;4.58;69.08;100562.81;7389640;19;20018;-64
2024/01/05 01:34:04;;;;;;;11.00;4.55;;;;;;;4.52;69.58;100555.25;7391519;19;20011;-64
2024/01/05 01:36:32;;;;;;;11.38;5.10;;;;;;;4.45;69.79;100547.78;7391669;19;20732;-64
2024/01/05 01:39:00;;;;;;;11.68;5.15;;;;;;;4.33;70.26;100546.63;7391777;19;20459;-67
2024/01/05 01:41:28;;;;;;;11.20;4.90;;;;;;;4.23;70.76;100554.09;7391793;19;20014;-64
2024/01/05 01:43:56;;;;;;;10.13;4.95;;;;;;;4.29;70.88;100553.78;7390272;19;20090;-63
2024/01/05 01:46:24;;;;;;;10.80;5.28;;;;;;;4.44;70.27;100551.31;7390867;19;20137;-61
2024/01/05 01:48:52;;;;;;;10.65;5.30;;;;;;;4.31;70.70;100536.22;7391543;19;20018;-64
2024/01/05 01:51:22;;;;;;;11.32;5.32;;;;;;;4.49;70.18;100551.94;7389948;19;20023;-61
2024/01/05 01:53:51;;;;;;;9.68;4.93;;;;;;;4.32;70.47;100548.41;7390891;19;20033;-62
2024/01/05 01:56:20;;;;;;;11.82;4.82;;;;;;;4.23;70.59;100538.38;7391440;19;20151;-62
2024/01/05 01:58:48;;;;;;;10.90;4.97;;;;;;;4.40;70.71;100550.63;7391425;19;20026;-62
2024/01/05 02:01:16;;;;;;;10.63;4.95;;;;;;;4.47;70.64;100545.94;7392925;19;20463;-61
2024/01/05 02:03:44;;;;;;;13.48;5.57;;;;;;;4.42;70.39;100538.28;7391610;19;20029;-62
2024/01/05 02:06:12;;;;;;;11.75;5.60;;;;;;;4.45;70.72;100534.66;7392756;19;20023;-63
2024/01/05 02:08:40;;;;;;;12.05;5.20;;;;;;;4.40;70.80;100530.50;7394363;19;20057;-65
2024/01/05 02:11:08;;;;;;;10.20;5.18;;;;;;;4.34;70.80;100533.44;7395027;19;20422;-66
2024/01/05 02:13:36;;;;;;;12.25;5.85;;;;;;;4.20;71.67;100528.06;7392734;19;20086;-66
2024/01/05 02:16:04;;;;;;;10.63;5.53;;;;;;;4.18;71.90;100524.66;7389165;19;20017;-66
2024/01/05 02:18:33;;;;;;;12.32;5.63;;;;;;;4.19;71.78;100515.88;7388971;19;20011;-66
2024/01/05 02:21:03;;;;;;;11.05;5.93;;;;;;;4.25;71.82;100509.47;7390779;19;20039;-66
2024/01/05 02:23:31;;;;;;;11.00;5.72;;;;;;;4.22;72.30;100515.72;7389912;19;20034;-67
2024/01/05 02:26:00;;;;;;;11.95;5.65;;;;;;;4.33;72.06;100512.56;7388455;19;20443;-66
2024/01/05 02:28:29;;;;;;;11.60;6.07;;;;;;;4.17;72.71;100509.03;7390722;19;20061;-66
2024/01/05 02:30:57;;;;;;;12.20;6.05;;;;;;;4.29;72.79;100496.13;7390383;19;20082;-66
2024/01/05 02:33:25;;;;;;;12.57;5.72;;;;;;;4.19;73.06;100496.69;7390045;19;20447;-66
2024/01/05 02:35:53;;;;;;;11.85;5.93;;;;;;;4.14;72.98;100486.44;7390689;19;20443;-66
2024/01/05 02:38:21;;;;;;;12.95;6.50;;;;;;;3.96;74.22;100487.38;7389843;19;20022;-66
2024/01/05 02:40:49;;;;;;;12.48;5.82;;;;;;;4.10;74.10;100491.00;7390445;19;20029;-66
2024/01/05 02:43:17;;;;;;;12.90;6.30;;;;;;;4.25;73.64;100494.59;7388209;19;20483;-66
2024/01/05 02:45:45;;;;;;;12.43;6.25;;;;;;;4.21;73.92;100485.22;7388324;19;20014;-66
2024/01/05 02:48:13;;;;;;;12.40;5.80;;;;;;;3.99;74.80;100472.34;7390460;19;20021;-66
2024/01/05 02:50:41;;;;;;;10.30;5.85;;;;;;;4.21;74.16;100474.72;7389173;19;20385;-67
2024/01/05 02:53:09;;;;;;;12.48;5.85;;;;;;;4.18;74.27;100471.41;7388519;19;20014;-66
2024/01/05 02:55:37;;;;;;;12.35;5.88;;;;;;;4.10;74.66;100462.16;7389653;19;20355;-66
2024/01/05 02:58:05;;;;;;;12.68;6.20;;;;;;;4.13;74.65;100462.03;7389735;19;20014;-66
2024/01/05 03:00:33;;;;;;;13.85;6.22;;;;;;;4.05;74.76;100450.25;7388758;19;20018;-66
2024/01/05 03:03:01;;;;;;;11.60;5.70;;;;;;;4.18;74.91;100451.28;7390407;19;20022;-66
2024/01/05 03:05:29;;;;;;;13.23;6.30;;;;;;;4.33;74.21;100449.66;7386362;19;20035;-66
2024/01/05 03:07:57;;;;;;;13.45;7.10;;;;;;;4.14;74.86;100447.13;7388273;19;20367;-66
2024/01/05 03:10:25;;;;;;;11.02;6.43;;;;;;;4.05;75.22;100439.78;7389594;19;20376;-64
2024/01/05 03:12:53;;;;;;;13.38;6.35;;;;;;;4.00;75.41;100434.75;7389582;19;20022;-64
2024/01/05 03:15:21;;;;;;;12.35;6.22;;;;;;;4.08;75.27;100422.13;7387649;19;20018;-66
2024/01/05 03:17:50;;;;;;;10.40;5.72;;;;;;;4.21;74.83;100422.31;7389240;19;20078;-66
2024/01/05 03:20:20;;;;;;;12.55;6.18;;;;;;;4.35;74.85;100424.19;7389160;19;20053;-63
2024/01/05 03:22:48;;;;;;;11.98;6.35;;;;;;;4.29;74.97;100411.41;7389372;19;20014;-63
2024/01/05 03:25:16;;;;;;;12.75;6.32;;;;;;;4.22;75.35;100420.53;7387699;19;20071;-63
2024/01/05 03:27:44;;;;;;;11.68;6.13;;;;;;;4.23;75.48;100411.72;7388943;19;20014;-62
2024/01/05 03:30:12;;;;;;;14.35;6.85;;;;;;;4.27;75.25;100401.00;7389105;19;20327;-64
2024/01/05 03:32:41;;;;;;;14.10;6.35;;;;;;;4.26;75.42;100411.56;7389158;19;20337;-65
2024/01/05 03:35:09;;;;;;;13.27;6.60;;;;;;;4.20;75.98;100404.91;7387499;19;20015;-63
2024/01/05 03:37:37;;;;;;;12.43;6.00;;;;;;;4.24;76.21;100406.44;7387354;19;20019;-65
2024/01/05 03:40:07;;;;;;;14.48;6.40;;;;;;;4.20;76.06;100397.03;7388093;19;20031;-65
2024/01/05 03:42:35;;;;;;;15.88;6.82;;;;;;;4.11;76.37;100398.34;7387564;19;20042;-64
2024/01/05 03:45:03;;;;;;;12.35;6.20;;;;;;;4.12;76.04;100393.94;7387451;19;20485;-63
2024/01/05 03:47:31;;;;;;;12.38;6.43;;;;;;;4.23;75.76;100381.13;7389026;19;20025;-64
2024/01/05 03:49:59;;;;;;;13.90;6.55;;;;;;;4.31;76.11;100380.72;7387713;19;20047;-65
2024/01/05 03:52:28;;;;;;;16.55;6.60;;;;;;;4.40;75.21;100382.88;7385933;19;20022;-63
2024/01/05 03:54:57;;;;;;;13.52;6.55;;;;;;;4.29;75.39;100379.97;7387716;19;20030;-62
2024/01/05 03:57:24;;;;;;;13.38;6.40;;;;;;;4.33;75.59;100376.25;7386919;19;20095;-63
2024/01/05 03:59:53;;;;;;;11.75;6.07;;;;;;;4.22;76.32;100368.13;7389532;19;20130;-63
2024/01/05 04:02:21;;;;;;;11.82;6.20;;;;;;;4.22;76.18;100374.19;7388737;19;20014;-64
2024/01/05 04:04:49;;;;;;;11.50;6.00;;;;;;;4.24;76.27;100368.91;7383985;19;20026;-64
2024/01/05 04:07:17;;;;;;;12.32;6.03;;;;;;;4.14;76.27;100368.53;7387330;19;20362;-64
2024/01/05 04:09:45;;;;;;;12.30;6.00;;;;;;;4.09;76.88;100355.69;7388149;19;20027;-64
2024/01/05 04:12:13;;;;;;;12.50;5.72;;;;;;;4.33;76.15;100368.38;7385246;19;20026;-64
2024/01/05 04:14:41;;;;;;;11.20;5.57;;;;;;;4.28;76.41;100367.81;7386383;19;20023;-64
2024/01/05 04:17:09;;;;;;;10.65;5.63;;;;;;;4.24;76.21;100355.78;7385744;19;20376;-64
2024/01/05 04:19:37;;;;;;;11.60;6.03;;;;;;;4.09;77.01;100347.81;7387858;19;20042;-64
2024/01/05 04:22:06;;;;;;;11.18;5.68;;;;;;;4.17;76.97;100344.78;7386612;19;20022;-64
2024/01/05 04:24:34;;;;;;;13.23;6.60;;;;;;;4.17;76.81;100339.53;7386343;19;20022;-65
2024/01/05 04:27:03;;;;;;;11.95;6.03;;;;;;;4.02;76.83;100330.72;7387546;19;20019;-64
2024/01/05 04:29:30;;;;;;;12.57;6.00;;;;;;;4.05;77.41;100335.81;7386817;19;20074;-64
2024/01/05 04:31:58;;;;;;;11.52;6.03;;;;;;;4.19;76.96;100339.44;7388205;19;20043;-64
2024/01/05 04:34:26;;;;;;;11.43;5.47;;;;;;;4.09;77.29;100333.88;7392385;19;20014;-64
2024/01/05 04:36:54;;;;;;;12.40;5.97;;;;;;;4.11;77.19;100332.84;7392332;19;20020;-64
2024/01/05 04:39:22;;;;;;;12.40;5.70;;;;;;;4.20;77.45;100331.53;7393264;19;20150;-64
2024/01/05 04:41:51;;;;;;;14.48;5.72;;;;;;;3.98;77.58;100317.88;7394933;19;20340;-64
2024/01/05 04:44:19;;;;;;;13.30;6.55;;;;;;;4.05;77.78;100321.88;7390343;19;20014;-64
2024/01/05 04:46:47;;;;;;;12.40;5.80;;;;;;;4.07;77.22;100312.97;7393451;19;20015;-64
2024/01/05 04:49:15;;;;;;;12.50;6.18;;;;;;;4.20;77.51;100318.44;7394800;19;20018;-64
2024/01/05 04:51:43;;;;;;;11.88;5.82;;;;;;;4.20;77.33;100313.19;7390784;19;20023;-64
2024/01/05 04:54:11;;;;;;;12.32;5.93;;;;;;;3.99;77.92;100298.63;7392952;19;20359;-64
2024/01/05 04:56:39;;;;;;;14.70;6.13;;;;;;;3.99;78.37;100298.63;7392854;19;20625;-64
2024/01/05 04:59:07;;;;;;;13.23;5.93;;;;;;;4.08;78.15;100303.34;7389486;19;20038;-63
2024/01/05 05:01:35;;;;;;;13.27;6.35;;;;;;;4.15;77.96;100308.16;7394798;19;20018;-63
2024/01/05 05:04:03;;;;;;;12.32;6.15;;;;;;;4.20;77.85;100302.69;7393741;19;20027;-63
2024/01/05 05:06:31;;;;;;;13.07;6.15;;;;;;;4.13;78.10;100307.41;7398330;19;20047;-63
2024/01/05 05:08:59;;;;;;;10.95;6.07;;;;;;;4.04;78.47;100300.03;7393897;19;20040;-63
2024/01/05 05:11:28;;;;;;;11.52;6.00;;;;;;;3.97;78.83;100295.22;7396218;19;20022;-63
2024/01/05 05:13:56;;;;;;;10.32;5.38;;;;;;;3.96;79.33;100289.13;7392982;19;20328;-63
2024/01/05 05:16:24;;;;;;;11.05;5.63;;;;;;;4.15;78.52;100292.44;7393347;19;20015;-64
2024/01/05 05:18:52;;;;;;;12.68;6.20;;;;;;;4.31;78.22;100288.97;7393967;19;20345;-64
2024/01/05 05:21:20;;;;;;;11.35;5.25;;;;;;;4.12;78.71;100287.41;7391704;19;20018;-64
2024/01/05 05:23:47;;;;;;;10.75;5.75;;;;;;;4.01;79.06;100273.19;7392341;19;20029;-64
2024/01/05 05:26:15;;;;;;;11.57;5.72;;;;;;;3.97;78.98;100269.91;7391286;19;20018;-64
2024/01/05 05:28:43;;;;;;;11.38;5.53;;;;;;;3.99;79.14;100254.91;7391564;19;20026;-64
2024/01/05 05:31:12;;;;;;;10.50;5.15;;;;;;;4.14;79.36;100279.44;7391589;19;20014;-63
2024/01/05 05:33:40;;;;;;;10.35;5.03;;;;;;;4.10;78.98;100264.81;7393116;19;20025;-63
2024/01/05 05:36:08;;;;;;;10.63;5.55;;;;;;;3.95;79.27;100260.41;7395566;19;20098;-63
2024/01/05 05:38:36;;;;;;;10.27;5.40;;;;;;;3.84;80.06;100268.84;7393137;19;20036;-63
2024/01/05 05:41:04;;;;;;;12.32;6.28;;;;;;;3.88;80.35;100258.13;7392832;19;20027;-63
2024/01/05 05:43:32;;;;;;;10.25;5.07;;;;;;;4.01;79.71;100262.72;7389490;19;20037;-63
2024/01/05 05:46:00;;;;;;;10.52;5.28;;;;;;;3.95;79.94;100253.41;7391214;19;20021;-63
2024/01/05 05:48:29;;;;;;;9.60;4.65;;;;;;;4.11;79.43;100269.97;7392802;19;20771;-64
2024/01/05 05:50:57;;;;;;;10.35;4.95;;;;;;;4.10;79.16;100257.81;7393770;19;20018;-63
2024/01/05 05:53:25;;;;;;;10.57;4.82;;;;;;;3.95;80.10;100261.25;7390335;19;20077;-64
2024/01/05 05:55:53;;;;;;;9.77;5.15;;;;;;;4.05;79.46;100257.22;7391699;19;20097;-63
2024/01/05 05:58:21;;;;;;;10.43;5.05;;;;;;;4.20;79.40;100262.53;7391620;19;20027;-64
2024/01/05 06:00:49;;;;;;;9.40;4.50;;;;;;;4.08;79.42;100251.81;7391878;19;20030;-64
2024/01/05 06:03:17;;;;;;;11.27;4.80;;;;;;;4.05;79.73;100244.13;7389845;19;20098;-64
2024/01/05 06:05:45;;;;;;;9.77;4.93;;;;;;;4.09;79.58;100235.16;7393425;19;20050;-63
2024/01/05 06:08:13;;;;;;;9.32;4.93;;;;;;;4.18;79.62;100233.78;7389686;19;20015;-64
2024/01/05 06:10:41;;;;;;;8.82;4.68;;;;;;;4.27;79.18;100232.44;7391376;19;20021;-64
2024/01/05 06:13:09;;;;;;;9.70;4.85;;;;;;;4.21;79.21;100231.00;7389563;19;20014;-63
2024/01/05 06:15:37;;;;;;;9.55;4.95;;;;;;;4.09;80.00;100229.91;7391965;19;20050;-63
2024/01/05 06:18:05;;;;;;;8.63;4.85;;;;;;;4.19;79.65;100237.25;7392614;19;20025;-63
2024/01/05 06:20:34;;;;;;;10.77;4.80;;;;;;;4.15;79.75;100228.72;7390670;19;20090;-63
2024/01/05 06:23:02;;;;;;;8.85;4.28;;;;;;;4.30;79.57;100240.13;7392285;19;20333;-63
2024/01/05 06:25:31;;;;;;;9.90;4.88;;;;;;;4.32;79.61;100236.50;7389119;19;20023;-63
2024/01/05 06:28:00;;;;;;;11.38;4.68;;;;;;;4.31;79.52;100244.44;7390538;19;20014;-63
2024/01/05 06:30:28;;;;;;;9.40;4.80;;;;;;;4.26;79.45;100243.84;7390915;19;20035;-63
2024/01/05 06:32:56;;;;;;;10.00;5.05;;;;;;;4.32;79.62;100254.84;7388990;19;20014;-63
2024/01/05 06:35:24;;;;;;;12.10;5.10;;;;;;;4.37;79.82;100254.59;7390559;19;20494;-63
2024/01/05 06:37:52;;;;;;;9.38;4.65;;;;;;;4.34;79.62;100255.59;7391130;19;20098;-63
2024/01/05 06:40:20;;;;;;;9.63;5.15;;;;;;;4.38;79.70;100249.25;7391171;19;20029;-63
2024/01/05 06:42:48;;;;;;;10.73;5.45;;;;;;;4.34;80.10;100245.09;7390039;19;20014;-63
2024/01/05 06:45:16;;;;;;;11.07;5.07;;;;;;;4.34;79.78;100239.84;7388297;19;20051;-63
2024/01/05 06:47:44;;;;;;;9.68;4.82;;;;;;;4.31;79.95;100232.19;7388816;19;20029;-63
2024/01/05 06:50:12;;;;;;;9.65;4.40;;;;;;;4.32;80.13;100230.41;7388196;19;20014;-64
2024/01/05 06:52:40;;;;;;;10.25;4.90;;;;;;;4.22;80.11;100230.06;7386287;19;20486;-63
2024/01/05 06:55:09;;;;;;;9.88;4.60;;;;;;;4.24;80.85;100222.97;7386684;19;20022;-64
2024/01/05 06:57:37;;;;;;;7.85;4.10;;;;;;;4.28;80.19;100219.25;7390272;19;20488;-63
2024/01/05 07:00:08;;;;;;;8.63;4.28;;;;;;;4.32;80.22;100218.16;7390312;19;20030;-63
2024/01/05 07:02:37;;;;;;;9.45;4.20;;;;;;;4.38;79.98;100217.78;7393715;19;20051;-63
2024/01/05 07:05:05;;;;;;;10.55;4.05;;;;;;;4.47;79.74;100221.69;7389471;19;20026;-63
2024/01/05 07:07:33;;;;;;;9.00;4.00;;;;;;;4.45;79.74;100227.94;7391045;19;20015;-63
2024/01/05 07:10:01;;;;;;;8.02;4.07;;;;;;;4.50;79.89;100226.75;7389357;19;20010;-63
2024/01/05 07:12:29;;;;;;;8.63;4.18;;;;;;;4.55;79.63;100224.72;7388340;19;20025;-63
2024/01/05 07:14:57;;;;;;;10.30;4.43;;;;;;;4.58;79.86;100224.53;7387090;19;20015;-64
2024/01/05 07:17:25;;;;;;;9.48;4.10;;;;;;;4.38;80.08;100219.56;7387476;19;20035;-64
2024/01/05 07:19:53;;;;;;;7.90;4.10;;;;;;;4.35;80.69;100217.97;7389896;19;20022;-63
2024/01/05 07:22:22;;;;;;;8.90;4.05;;;;;;;4.40;80.73;100223.81;7389802;19;20019;-64
2024/01/05 07:24:50;;;;;;;8.27;3.80;;;;;;;4.38;80.45;100219.56;7387686;19;20057;-63
2024/01/05 07:27:17;;;;;;;8.65;4.07;;;;;;;4.46;80.48;100219.13;7388902;19;20017;-63
2024/01/05 07:29:45;;;;;;;9.32;3.97;;;;;;;4.36;80.50;100224.06;7389161;19;20376;-63
2024/01/05 07:32:13;;;;;;;6.93;3.50;;;;;;;4.32;80.84;100218.16;7388814;19;20039;-63
2024/01/05 07:34:41;;;;;;;8.63;3.90;;;;;;;4.38;81.05;100222.19;7387034;19;20014;-63
2024/01/05 07:37:09;;;;;;;8.88;3.55;;;;;;;4.33;81.06;100224.22;7388733;19;20022;-63
2024/01/05 07:39:38;;;;;;;8.68;3.83;;;;;;;4.32;80.61;100226.00;7389783;19;20539;-63
2024/01/05 07:42:06;;;;;;;11.55;3.80;;;;;;;4.30;81.02;100233.09;7388530;19;20035;-63
2024/01/05 07:44:34;;;;;;;6.80;3.38;;;;;;;4.40;80.88;100236.91;7387197;19;20112;-63
2024/01/05 07:47:02;;;;;;;7.07;3.70;;;;;;;4.47;80.49;100245.28;7387570;19;20007;-63
2024/01/05 07:49:30;;;;;;;8.80;3.70;;;;;;;4.33;80.87;100243.41;7388718;19;20113;-64
2024/01/05 07:51:58;;;;;;;8.60;3.45;;;;;;;4.41;81.05;100229.88;7388114;19;20522;-63
2024/01/05 07:54:26;;;;;;;6.88;3.58;;;;;;;4.45;80.73;100234.03;7387403;19;20018;-63
2024/01/05 07:56:54;;;;;;;8.38;3.53;;;;;;;4.58;80.28;100245.50;7388618;19;20018;-63
2024/01/05 07:59:23;;;;;;;8.02;3.65;;;;;;;4.38;81.00;100230.88;7389093;19;20085;-63
2024/01/05 08:01:54;;;;;;;6.57;3.20;;;;;;;4.53;81.15;100237.03;7388399;19;20015;-64
2024/01/05 08:04:22;;;;;;;6.40;2.90;;;;;;;4.42;80.84;100218.47;7388042;19;20022;-63
2024/01/05 08:06:50;;;;;;;5.75;2.92;;;;;;;4.30;81.36;100208.69;7389369;19;20050;-63
2024/01/05 08:09:19;;;;;;;5.20;3.00;;;;;;;4.19;81.61;100195.34;7396556;19;20022;-63
2024/01/05 08:14:19;;;;;;;5.53;2.65;;;;;;;4.51;80.50;100199.59;7398599;19;20337;-58
2024/01/05 08:16:48;;;;;;;6.20;2.60;;;;;;;4.56;80.37;100202.78;7394728;19;20365;-60
2024/01/05 08:19:15;;;;;;;6.32;2.92;;;;;;;4.54;80.10;100202.06;7395064;19;20018;-60
2024/01/05 08:21:43;;;;;;;6.47;3.15;;;;;;;4.44;80.20;100195.63;7398254;19;20373;-60
2024/01/05 08:24:12;;;;;;;6.72;3.20;;;;;;;4.40;80.97;100192.34;7394351;19;20582;-61
2024/01/05 08:26:43;;;;;;;5.93;2.92;;;;;;;4.53;80.66;100202.97;7394765;19;20511;-59
2024/01/05 08:29:11;;;;;;;5.28;2.80;;;;;;;4.47;80.49;100203.34;7394996;19;20509;-60
2024/01/05 08:31:39;;;;;;;5.00;2.53;;;;;;;4.52;80.39;100206.53;7395212;19;20389;-60
2024/01/05 08:34:07;;;;;;;5.57;2.75;;;;;;;4.67;80.41;100203.97;7392091;19;20064;-61
2024/01/05 08:36:35;;;;;;;4.85;2.40;;;;;;;4.50;80.55;100200.53;7399154;19;20014;-59
2024/01/05 08:39:05;;;;;;;6.28;2.78;;;;;;;4.55;80.36;100185.38;7394774;19;20049;-60
2024/01/05 08:41:33;;;;;;;10.85;5.88;;;;;;;4.45;80.73;100189.44;7395568;19;20023;-61
2024/01/05 08:44:01;;;;;;;5.97;2.85;;;;;;;4.47;80.85;100184.13;7395233;19;20022;-60
2024/01/05 08:46:29;;;;;;;4.75;2.60;;;;;;;4.58;80.72;100189.63;7395083;19;20090;-62
2024/01/05 08:48:57;;;;;;;6.00;2.70;;;;;;;4.63;80.57;100195.41;7394013;19;20025;-62
2024/01/05 08:51:25;;;;;;;5.93;2.33;;;;;;;4.76;80.01;100185.03;7395666;19;20022;-61
2024/01/05 08:53:54;;;;;;;4.82;2.38;;;;;;;4.68;80.36;100184.66;7387789;19;20027;-61
2024/01/05 08:56:22;;;;;;;7.57;4.05;;;;;;;4.66;80.27;100194.41;7399121;19;20018;-60
2024/01/05 08:58:51;;;;;;;5.63;2.50;;;;;;;4.58;80.41;100193.06;7394326;19;20026;-60
2024/01/05 09:01:19;;;;;;;4.93;2.70;;;;;;;4.53;80.60;100189.84;7392721;19;20011;-61
2024/01/05 09:03:49;;;;;;;5.93;3.00;;;;;;;4.53;81.08;100189.84;7393001;19;20029;-60
2024/01/05 09:06:18;;;;;;;5.43;2.17;;;;;;;4.70;80.36;100185.44;7397162;19;20354;-60
2024/01/05 09:08:46;;;;;;;3.40;2.00;;;;;;;4.80;79.78;100183.94;7394056;19;20481;-60
2024/01/05 09:11:14;;;;;;;3.80;1.90;;;;;;;4.62;80.14;100191.13;7394093;19;20421;-60
2024/01/05 09:13:42;;;;;;;4.50;2.00;;;;;;;4.55;80.62;100184.53;7391097;19;20089;-58
2024/01/05 09:16:10;;;;;;;5.13;2.17;;;;;;;4.43;81.28;100183.47;7392472;19;20130;-59
2024/01/05 09:18:38;;;;;;;4.18;1.80;;;;;;;4.43;80.67;100180.84;7392904;19;20011;-60
2024/01/05 09:21:10;;;;;;;4.80;2.53;;;;;;;4.62;80.59;100194.59;7393865;19;20034;-60
2024/01/05 09:23:40;;;;;;;3.50;1.98;;;;;;;4.58;80.38;100197.47;7394359;19;20048;-60
2024/01/05 09:26:15;;;;;;;4.28;1.88;;;;;;;4.50;80.61;100207.53;7393465;19;20018;-61
2024/01/05 09:28:43;;;;;;;4.35;2.47;;;;;;;4.34;81.68;100205.78;7395334;19;20047;-62
2024/01/05 09:31:11;;;;;;;2.42;1.80;;;;;;;4.61;80.81;100208.59;7393609;19;20027;-61
2024/01/05 09:33:39;;;;;;;4.00;1.88;;;;;;;4.76;79.96;100201.63;7392139;19;20354;-60
2024/01/05 09:36:08;;;;;;;3.70;1.60;;;;;;;4.71;80.07;100187.94;7396323;19;20024;-62
2024/01/05 09:38:37;;;;;;;2.58;1.65;;;;;;;4.80;79.69;100192.63;7393380;19;20018;-59
2024/01/05 09:41:08;;;;;;;3.17;1.55;;;;;;;4.71;79.96;100192.34;7393694;19;20010;-60
2024/01/05 09:43:37;;;;;;;2.33;1.70;;;;;;;4.77;79.85;100198.09;7393263;19;20361;-60
2024/01/05 09:46:05;;;;;;;3.67;1.90;;;;;;;4.80;80.01;100191.81;7392630;19;20020;-61
2024/01/05 09:48:33;;;;;;;4.85;1.90;;;;;;;4.68;80.44;100197.78;7393100;19;20410;-60
2024/01/05 09:51:14;;;;;;;4.05;2.10;;;;;;;4.68;80.64;100200.38;7392026;19;20872;-60
2024/01/05 09:53:44;;;;;;;3.97;2.33;;;;;;;4.66;80.83;100197.88;7392113;19;20053;-60
2024/01/05 09:56:14;;;;;;;3.15;1.70;;;;;;;4.60;81.14;100201.69;7392021;19;20043;-61
2024/01/05 09:58:45;;;;;;;3.90;2.20;;;;;;;4.74;80.48;100192.19;7392668;19;20091;-60
2024/01/05 10:01:21;;;;;;;2.88;1.75;;;;;;;4.78;80.10;100185.81;7394278;19;20051;-59
2024/01/05 10:03:57;;;;;;;4.60;1.67;;;;;;;4.86;80.30;100194.06;7393054;19;20524;-61
2024/01/05 10:06:26;;;;;;;2.92;1.60;;;;;;;4.81;80.15;100191.72;7397459;19;20687;-61
2024/01/05 10:08:55;;;;;;;3.40;1.60;;;;;;;4.84;80.07;100195.94;7391336;19;20026;-61
2024/01/05 10:11:30;;;;;;;5.18;3.22;;;;;;;4.92;79.78;100191.06;7392808;19;20018;-59
2024/01/05 10:14:06;;;;;;;7.53;5.35;;;;;;;4.85;79.91;100185.38;7390874;19;20520;-61
2024/01/05 10:16:37;;;;;;;5.65;3.20;;;;;;;4.68;80.24;100184.66;7392456;19;20039;-59
2024/01/05 10:19:17;;;;;;;5.65;2.22;;;;;;;4.78;79.99;100173.53;7393053;19;20014;-60
2024/01/05 10:21:47;;;;;;;3.67;2.20;;;;;;;4.78;80.25;100178.78;7392518;19;20360;-60
2024/01/05 10:24:21;;;;;;;6.22;2.25;;;;;;;4.76;79.86;100170.16;7390993;19;20039;-59
2024/01/05 10:27:15;;;;;;;4.80;2.00;;;;;;;4.92;79.90;100164.84;7392192;19;20113;-60
2024/01/05 10:29:43;;;;;;;3.25;2.00;;;;;;;4.80;79.76;100161.16;7390409;19;20011;-60
2024/01/05 10:32:17;;;;;;;5.38;2.03;;;;;;;4.77;80.16;100161.38;7390811;19;20378;-60
2024/01/05 10:34:49;;;;;;;4.60;2.13;;;;;;;4.75;80.01;100157.13;7390735;19;20018;-60
2024/01/05 10:37:21;;;;;;;5.15;2.33;;;;;;;4.76;80.13;100153.56;7391670;19;20363;-60
2024/01/05 10:39:52;;;;;;;4.75;1.98;;;;;;;4.82;79.87;100153.22;7391947;19;20033;-60
2024/01/05 10:42:32;;;;;;;4.35;2.17;;;;;;;4.78;80.17;100163.06;7392364;19;20436;-61
2024/01/05 10:45:01;;;;;;;5.30;2.72;;;;;;;4.88;80.05;100155.47;7389329;19;20022;-59
2024/01/05 10:47:30;;;;;;;5.82;2.88;;;;;;;4.96;79.85;100145.38;7390727;19;20414;-60
2024/01/05 10:49:58;;;;;;;5.88;3.00;;;;;;;4.99;79.58;100149.56;7394885;19;20130;-60
2024/01/05 10:52:32;;;;;;;7.47;3.70;;;;;;;5.06;79.71;100145.66;7392825;19;20077;-61
2024/01/05 10:55:02;;;;;;;4.97;3.10;;;;;;;5.17;78.91;100148.47;7391009;19;20329;-59
2024/01/05 10:57:35;;;;;;;6.00;3.85;;;;;;;5.33;78.83;100148.38;7391873;19;20019;-59
2024/01/05 11:00:09;;;;;;;4.45;2.22;;;;;;;5.09;79.11;100132.34;7392424;19;20089;-60
2024/01/05 11:02:40;;;;;;;7.57;2.90;;;;;;;4.85;79.86;100130.28;7391771;19;20041;-61
2024/01/05 11:05:11;;;;;;;5.45;2.72;;;;;;;4.97;79.76;100127.84;7390972;19;20382;-60
2024/01/05 11:07:41;;;;;;;6.07;2.80;;;;;;;4.82;80.18;100121.75;7390032;19;20045;-59
2024/01/05 11:10:32;;;;;;;5.47;2.30;;;;;;;4.89;80.37;100117.81;7389735;19;20479;-61
2024/01/05 11:13:23;;;;;;;5.40;2.20;;;;;;;4.98;79.71;100117.25;7389133;19;20030;-59
2024/01/05 11:16:03;;;;;;;7.78;2.58;;;;;;;5.08;79.34;100117.56;7389414;19;20027;-60
2024/01/05 11:18:31;;;;;;;7.63;2.60;;;;;;;5.00;79.77;100117.16;7388943;19;20027;-60
2024/01/05 11:21:13;;;;;;;5.05;2.53;;;;;;;4.93;80.09;100108.81;7390916;19;20040;-59
2024/01/05 11:23:43;;;;;;;6.80;2.70;;;;;;;4.91;80.38;100115.09;7389996;19;20058;-60
2024/01/05 11:26:39;;;;;;;7.30;2.65;;;;;;;5.01;79.75;100108.38;7389691;19;20021;-59
2024/01/05 11:29:10;;;;;;;6.68;2.50;;;;;;;4.80;80.11;100123.59;7390862;19;20018;-59
2024/01/05 11:31:47;;;;;;;5.05;2.20;;;;;;;4.86;80.31;100121.47;7390396;19;20018;-59
2024/01/05 11:34:34;;;;;;;6.13;2.53;;;;;;;5.10;79.16;100115.66;7388317;19;20092;-59
2024/01/05 11:37:04;;;;;;;4.50;2.28;;;;;;;4.96;79.91;100116.53;7389603;19;20011;-59
2024/01/05 11:39:49;;;;;;;6.28;2.50;;;;;;;5.11;79.72;100112.97;7389542;19;20022;-61